Time;durP1;ratioP1;P1;durP2;ratioP2;P2;SDS_P1;SDS_P2;PMS_P1;PMS_P2;Temp;Humidity;BMP_temperature;BMP_pressure;BME280_temperature;BME280_humidity;BME280_pressure;Samples;Min_cycle;Max_cycle;Signal;HPM_P1;HPM_P2
2022/04/12 00:01:04;;;;;;;144.50;64.82;;;3.40;99.90;;;;;;5059634;28;20098;-52
2022/04/12 00:03:30;;;;;;;147.80;67.10;;;3.30;99.90;;;;;;5056585;28;20029;-52
2022/04/12 00:05:55;;;;;;;146.50;63.85;;;3.20;99.90;;;;;;5068882;28;20035;-51
2022/04/12 00:08:22;;;;;;;139.05;60.17;;;3.40;99.90;;;;;;5068835;28;20036;-53
2022/04/12 00:10:48;;;;;;;143.23;66.22;;;3.30;99.90;;;;;;5068595;28;20028;-52
2022/04/12 00:13:15;;;;;;;111.80;52.70;;;3.30;99.90;;;;;;5068765;28;20448;-52
2022/04/12 00:15:40;;;;;;;132.85;56.13;;;3.20;99.90;;;;;;5068756;28;20029;-52
2022/04/12 00:20:53;;;;;;;113.43;49.95;;;3.30;99.90;;;;;;5068690;28;20031;-54
2022/04/12 00:23:19;;;;;;;93.60;45.25;;;3.40;99.90;;;;;;5068662;28;20055;-53
2022/04/12 00:25:45;;;;;;;94.82;45.03;;;3.30;99.90;;;;;;5068613;28;20492;-52
2022/04/12 00:28:13;;;;;;;88.00;42.70;;;3.30;99.90;;;;;;5067528;28;20042;-52
2022/04/12 00:30:38;;;;;;;91.32;42.75;;;3.30;99.90;;;;;;5068626;28;20151;-51
2022/04/12 00:33:04;;;;;;;93.80;42.08;;;3.40;99.90;;;;;;5068378;28;20123;-51
2022/04/12 00:35:30;;;;;;;91.60;40.75;;;3.40;99.90;;;;;;5068678;28;20032;-51
2022/04/12 00:37:56;;;;;;;95.90;42.47;;;3.20;99.90;;;;;;5068346;28;20051;-51
2022/04/12 00:40:26;;;;;;;98.15;44.78;;;3.30;99.90;;;;;;5068353;28;20028;-54
2022/04/12 00:42:53;;;;;;;100.68;45.30;;;3.10;99.90;;;;;;5068619;28;20029;-52
2022/04/12 00:45:20;;;;;;;109.97;46.63;;;3.00;99.90;;;;;;5068298;28;20020;-54
2022/04/12 00:47:46;;;;;;;101.63;47.00;;;3.00;99.90;;;;;;5068488;28;20056;-53
2022/04/12 00:50:13;;;;;;;102.05;47.30;;;2.90;99.90;;;;;;5068140;28;20487;-53
2022/04/12 00:52:45;;;;;;;96.05;45.33;;;2.80;99.90;;;;;;5068363;28;20613;-53
2022/04/12 00:55:11;;;;;;;102.15;46.45;;;2.70;99.90;;;;;;5068496;28;20495;-51
2022/04/12 00:57:37;;;;;;;115.65;49.03;;;2.60;99.90;;;;;;5068211;28;20029;-55
2022/04/12 01:00:07;;;;;;;116.20;50.25;;;2.60;99.90;;;;;;5068583;28;20021;-51
2022/04/12 01:02:34;;;;;;;115.78;50.80;;;2.50;99.90;;;;;;5066821;28;20127;-52
2022/04/12 01:05:01;;;;;;;120.40;53.45;;;2.40;99.90;;;;;;5068471;28;20036;-52
2022/04/12 01:07:28;;;;;;;119.88;51.40;;;2.50;99.90;;;;;;5068200;28;20087;-52
2022/04/12 01:09:54;;;;;;;;;;;2.50;99.90;;;;;;5068567;28;20021;-51
2022/04/12 01:12:21;;;;;;;117.90;51.10;;;2.30;99.90;;;;;;5068138;28;19915;-51
2022/04/12 01:14:47;;;;;;;;;;;2.40;99.90;;;;;;5068501;28;20541;-53
2022/04/12 01:17:15;;;;;;;114.75;50.22;;;2.40;99.90;;;;;;5068034;28;19908;-53
2022/04/12 01:19:41;;;;;;;107.13;47.80;;;2.40;99.90;;;;;;5068024;28;20024;-51
2022/04/12 01:22:11;;;;;;;127.45;52.13;;;2.30;99.90;;;;;;5067981;28;20060;-51
2022/04/12 01:24:38;;;;;;;121.18;53.28;;;2.10;99.90;;;;;;5068144;28;20114;-53
2022/04/12 01:27:03;;;;;;;119.72;51.88;;;2.20;99.90;;;;;;5067920;28;20048;-52
2022/04/12 01:29:36;;;;;;;116.85;50.78;;;2.10;99.90;;;;;;5068153;28;20025;-52
2022/04/12 01:32:07;;;;;;;113.43;49.10;;;2.20;99.90;;;;;;5066485;28;20035;-51
2022/04/12 01:34:36;;;;;;;113.32;51.88;;;2.20;99.90;;;;;;5067951;28;20021;-52
2022/04/12 01:37:07;;;;;;;120.82;49.13;;;2.10;99.90;;;;;;5067913;28;20025;-52
2022/04/12 01:39:33;;;;;;;104.47;47.90;;;2.00;99.90;;;;;;5069220;28;20028;-51
2022/04/12 01:41:59;;;;;;;116.55;51.05;;;1.90;99.90;;;;;;5071620;28;20111;-51
2022/04/12 01:44:25;;;;;;;103.03;48.45;;;2.00;99.90;;;;;;5071572;28;20380;-53
2022/04/12 01:46:50;;;;;;;117.03;52.17;;;1.90;99.90;;;;;;5071372;28;20106;-51
2022/04/12 01:49:16;;;;;;;109.88;50.05;;;1.90;99.90;;;;;;5071239;28;20368;-52
2022/04/12 01:51:42;;;;;;;112.05;50.53;;;1.90;99.90;;;;;;5069804;28;20048;-54
2022/04/12 01:54:08;;;;;;;106.43;49.17;;;1.80;99.90;;;;;;5071427;28;20035;-53
2022/04/12 01:56:34;;;;;;;121.35;52.95;;;1.80;99.90;;;;;;5071313;28;20040;-53
2022/04/12 01:59:01;;;;;;;111.40;51.58;;;1.80;99.90;;;;;;5071262;28;20032;-52
2022/04/12 02:01:27;;;;;;;106.43;48.50;;;1.90;99.90;;;;;;5071128;28;20038;-53
2022/04/12 02:03:53;;;;;;;120.70;51.80;;;1.70;99.90;;;;;;5069772;28;20111;-53
2022/04/12 02:06:19;;;;;;;117.88;54.60;;;1.70;99.90;;;;;;5070844;28;20151;-51
2022/04/12 02:08:44;;;;;;;115.78;50.42;;;1.70;99.90;;;;;;5071144;28;20048;-52
2022/04/12 02:11:10;;;;;;;114.63;51.88;;;1.70;99.90;;;;;;5070879;28;20363;-53
2022/04/12 02:13:36;;;;;;;108.53;51.35;;;1.70;99.90;;;;;;5070929;28;20023;-52
2022/04/12 02:16:01;;;;;;;107.25;50.03;;;1.60;99.90;;;;;;5065759;28;20043;-51
2022/04/12 02:18:27;;;;;;;102.20;45.42;;;1.60;99.90;;;;;;5071875;28;20111;-52
2022/04/12 02:20:53;;;;;;;113.68;49.80;;;1.60;99.90;;;;;;5070728;28;20027;-51
2022/04/12 02:23:18;;;;;;;109.18;48.28;;;1.60;99.90;;;;;;5070927;28;20055;-51
2022/04/12 02:25:44;;;;;;;109.78;51.22;;;1.60;99.90;;;;;;5070889;28;20028;-52
2022/04/12 02:28:10;;;;;;;107.35;52.05;;;1.60;99.90;;;;;;5070855;28;20090;-53
2022/04/12 02:30:36;;;;;;;102.53;47.47;;;1.50;99.90;;;;;;5070993;28;20024;-51
2022/04/12 02:33:02;;;;;;;95.87;47.13;;;1.40;99.90;;;;;;5070881;28;20036;-52
2022/04/12 02:35:28;;;;;;;99.13;44.92;;;1.40;99.90;;;;;;5070645;28;20025;-51
2022/04/12 02:37:54;;;;;;;102.40;47.55;;;1.30;99.90;;;;;;5070729;28;20104;-52
2022/04/12 02:40:19;;;;;;;100.60;44.45;;;1.40;99.90;;;;;;5070543;28;20051;-52
2022/04/12 02:42:45;;;;;;;98.05;45.00;;;1.40;99.90;;;;;;5070680;28;20107;-51
2022/04/12 02:45:11;;;;;;;102.50;46.70;;;1.40;99.90;;;;;;5070493;28;20040;-52
2022/04/12 02:47:36;;;;;;;92.95;47.40;;;1.40;99.90;;;;;;5070340;28;20039;-52
2022/04/12 02:50:02;;;;;;;94.88;46.92;;;1.40;99.90;;;;;;5070249;28;20028;-52
2022/04/12 02:52:28;;;;;;;104.45;46.70;;;1.50;99.90;;;;;;5069685;28;20352;-51
2022/04/12 02:54:54;;;;;;;92.95;45.42;;;1.40;99.90;;;;;;5070603;28;20519;-51
2022/04/12 02:57:20;;;;;;;103.65;48.17;;;1.50;99.90;;;;;;5070602;28;20111;-53
2022/04/12 02:59:45;;;;;;;109.55;51.45;;;1.40;99.90;;;;;;5070302;28;20387;-52
2022/04/12 03:02:11;;;;;;;131.60;60.47;;;1.40;99.90;;;;;;5070049;28;20038;-52
2022/04/12 03:04:36;;;;;;;136.02;61.97;;;1.50;99.90;;;;;;5066563;28;20108;-51
2022/04/12 03:07:02;;;;;;;110.13;50.47;;;1.50;99.90;;;;;;5032439;28;20468;-52
2022/04/12 03:09:28;;;;;;;110.65;55.22;;;1.50;99.90;;;;;;5049836;28;20060;-52
2022/04/12 03:11:54;;;;;;;103.53;51.75;;;1.50;99.90;;;;;;5056117;28;20016;-52
2022/04/12 03:14:20;;;;;;;115.22;51.70;;;1.60;99.90;;;;;;5069937;28;20073;-52
2022/04/12 03:16:45;;;;;;;126.28;58.05;;;1.50;99.90;;;;;;5069923;28;20058;-53
2022/04/12 03:19:11;;;;;;;141.68;60.05;;;1.50;99.90;;;;;;5069597;28;20036;-53
2022/04/12 03:21:37;;;;;;;133.07;60.20;;;1.40;99.90;;;;;;5051645;28;20124;-53
2022/04/12 03:24:04;;;;;;;129.07;59.28;;;1.50;99.90;;;;;;5051679;28;20031;-53
2022/04/12 03:26:29;;;;;;;;;;;1.60;99.90;;;;;;5069981;28;20035;-52
2022/04/12 03:28:55;;;;;;;110.97;54.45;;;1.50;99.90;;;;;;5069729;28;20296;-53
2022/04/12 03:31:21;;;;;;;128.77;59.95;;;1.40;99.90;;;;;;5069440;28;20387;-52
2022/04/12 03:33:48;;;;;;;122.97;57.27;;;1.30;99.90;;;;;;5069232;28;20025;-51
2022/04/12 03:36:13;;;;;;;140.43;64.05;;;1.40;99.90;;;;;;5069582;28;20028;-52
2022/04/12 03:38:48;;;;;;;129.27;61.08;;;1.40;99.90;;;;;;5069495;28;20054;-53
2022/04/12 03:41:24;;;;;;;128.93;58.05;;;1.40;99.90;;;;;;5051441;28;20037;-53
2022/04/12 03:43:52;;;;;;;120.68;55.33;;;1.40;99.90;;;;;;5069419;28;20036;-52
2022/04/12 03:46:19;;;;;;;115.53;56.47;;;1.30;99.90;;;;;;5069452;28;20028;-52
2022/04/12 03:48:45;;;;;;;121.80;57.97;;;1.40;99.90;;;;;;5068994;28;20048;-51
2022/04/12 03:51:11;;;;;;;121.28;55.70;;;1.40;99.90;;;;;;5069202;28;20057;-53
2022/04/12 03:53:37;;;;;;;113.70;50.53;;;1.40;99.90;;;;;;5069205;28;20082;-51
2022/04/12 03:56:07;;;;;;;113.20;55.72;;;1.60;99.90;;;;;;5069363;28;20460;-52
2022/04/12 03:58:37;;;;;;;112.72;50.50;;;1.50;99.90;;;;;;5069233;28;20051;-53
2022/04/12 04:01:03;;;;;;;114.95;52.55;;;1.50;99.90;;;;;;5069034;28;20021;-51
2022/04/12 04:03:29;;;;;;;109.93;52.63;;;1.50;99.90;;;;;;5069167;28;20024;-54
2022/04/12 04:05:55;;;;;;;107.65;51.85;;;1.60;99.90;;;;;;5054729;28;20021;-54
2022/04/12 04:08:21;;;;;;;119.00;53.35;;;1.60;99.90;;;;;;5031175;28;20036;-52
2022/04/12 04:10:47;;;;;;;119.57;52.83;;;1.60;99.90;;;;;;5030648;28;20462;-51
2022/04/12 04:13:14;;;;;;;112.57;55.05;;;1.60;99.90;;;;;;5065916;28;20025;-52
2022/04/12 04:15:40;;;;;;;119.88;53.45;;;1.70;99.90;;;;;;5076297;28;20043;-51
2022/04/12 04:18:09;;;;;;;133.82;59.50;;;1.70;99.90;;;;;;5071018;28;20395;-53
2022/04/12 04:20:35;;;;;;;151.20;66.88;;;1.80;99.90;;;;;;5076188;28;20161;-52
2022/04/12 04:23:01;;;;;;;155.25;65.50;;;1.60;99.90;;;;;;5078999;28;20035;-53
2022/04/12 04:25:28;;;;;;;136.10;61.28;;;1.70;99.90;;;;;;5077153;28;20024;-51
2022/04/12 04:27:54;;;;;;;145.70;68.97;;;1.70;99.90;;;;;;5077296;28;20028;-52
2022/04/12 04:30:20;;;;;;;177.00;76.60;;;1.70;99.90;;;;;;5078526;28;20387;-52
2022/04/12 04:32:46;;;;;;;174.82;78.10;;;1.80;99.90;;;;;;5058895;28;20032;-53
2022/04/12 04:35:13;;;;;;;163.73;73.80;;;1.80;99.90;;;;;;5078299;28;20016;-52
2022/04/12 04:37:46;;;;;;;158.23;74.72;;;1.80;99.90;;;;;;5079557;28;20104;-52
2022/04/12 04:40:22;;;;;;;163.68;72.38;;;1.80;99.90;;;;;;5076520;28;20028;-52
2022/04/12 04:42:52;;;;;;;147.82;67.30;;;1.80;99.90;;;;;;5075187;28;20491;-52
2022/04/12 04:45:18;;;;;;;150.55;67.70;;;1.70;99.90;;;;;;5059181;28;20444;-53
2022/04/12 04:47:49;;;;;;;147.17;67.83;;;1.70;99.90;;;;;;5078447;28;20031;-54
2022/04/12 04:50:16;;;;;;;155.45;69.88;;;1.80;99.90;;;;;;5079213;28;20190;-52
2022/04/12 04:52:42;;;;;;;142.23;65.43;;;1.90;99.90;;;;;;5077795;28;20536;-51
2022/04/12 04:55:08;;;;;;;137.30;66.45;;;2.00;99.90;;;;;;5059591;28;20122;-53
2022/04/12 04:57:38;;;;;;;154.75;67.82;;;1.90;99.90;;;;;;5088193;28;20387;-51
2022/04/12 05:00:06;;;;;;;159.27;74.25;;;2.00;99.90;;;;;;5053845;28;20063;-52
2022/04/12 05:02:33;;;;;;;153.50;71.60;;;1.90;99.90;;;;;;5079742;28;20024;-51
2022/04/12 05:04:58;;;;;;;146.30;72.33;;;1.90;99.90;;;;;;5076960;28;20491;-53
2022/04/12 05:07:27;;;;;;;147.00;74.32;;;2.00;99.90;;;;;;5077075;28;20267;-52
2022/04/12 05:09:53;;;;;;;158.10;79.25;;;2.00;99.90;;;;;;5068413;28;20575;-54
2022/04/12 05:12:19;;;;;;;152.02;75.38;;;2.00;99.90;;;;;;5068359;28;20028;-52
2022/04/12 05:14:45;;;;;;;145.98;69.43;;;1.80;99.90;;;;;;5077783;28;20043;-52
2022/04/12 05:17:10;;;;;;;137.32;65.10;;;1.90;99.90;;;;;;5081971;28;20212;-53
2022/04/12 05:19:36;;;;;;;142.88;67.78;;;1.90;99.90;;;;;;5080874;28;20107;-52
2022/04/12 05:22:02;;;;;;;142.25;67.70;;;1.80;99.90;;;;;;5083025;28;20036;-53
2022/04/12 05:24:27;;;;;;;127.10;62.95;;;1.90;99.90;;;;;;5078856;28;20028;-51
2022/04/12 05:26:53;;;;;;;138.38;65.35;;;2.00;99.90;;;;;;5082152;28;20129;-53
2022/04/12 05:29:19;;;;;;;125.85;61.40;;;2.00;99.90;;;;;;5080384;28;20036;-51
2022/04/12 05:31:45;;;;;;;120.65;60.17;;;2.00;99.90;;;;;;5062545;28;20020;-52
2022/04/12 05:34:10;;;;;;;125.78;61.95;;;2.20;99.90;;;;;;5081829;28;20521;-55
2022/04/12 05:36:36;;;;;;;141.80;63.38;;;2.20;99.90;;;;;;5079817;28;20026;-51
2022/04/12 05:39:02;;;;;;;131.18;62.53;;;2.30;99.90;;;;;;5080668;28;20062;-52
2022/04/12 05:41:27;;;;;;;136.30;65.60;;;2.30;99.90;;;;;;5081467;28;20054;-52
2022/04/12 05:43:53;;;;;;;127.32;61.67;;;2.40;99.90;;;;;;5079652;28;20372;-51
2022/04/12 05:46:19;;;;;;;124.60;59.25;;;2.50;99.90;;;;;;5080971;28;20543;-53
2022/04/12 05:48:44;;;;;;;142.93;64.70;;;2.50;99.90;;;;;;5080742;28;20040;-53
2022/04/12 05:51:11;;;;;;;118.97;58.75;;;2.70;99.90;;;;;;5079309;28;20535;-52
2022/04/12 05:53:38;;;;;;;121.10;58.38;;;2.80;99.90;;;;;;5046595;28;20104;-52
2022/04/12 05:56:04;;;;;;;110.20;53.58;;;2.90;99.90;;;;;;5080751;28;20479;-53
2022/04/12 05:58:32;;;;;;;102.97;51.85;;;3.10;99.90;;;;;;5071757;28;20035;-51
2022/04/12 06:00:58;;;;;;;112.80;53.40;;;3.20;99.90;;;;;;5071441;28;20028;-52
2022/04/12 06:03:23;;;;;;;90.35;45.25;;;3.40;99.90;;;;;;5071704;28;20527;-52
2022/04/12 06:05:49;;;;;;;97.00;46.42;;;3.50;99.90;;;;;;5071115;28;20025;-53
2022/04/12 06:08:15;;;;;;;90.80;45.28;;;3.70;99.90;;;;;;5061973;28;20044;-54
2022/04/12 06:10:40;;;;;;;90.38;43.22;;;3.90;99.90;;;;;;5051163;28;20033;-53
2022/04/12 06:13:06;;;;;;;87.95;42.08;;;4.00;99.90;;;;;;5067093;28;20032;-52
2022/04/12 06:15:32;;;;;;;84.80;41.70;;;4.20;99.90;;;;;;5071032;28;20047;-52
2022/04/12 06:17:57;;;;;;;71.90;34.72;;;4.30;99.90;;;;;;5071396;28;20020;-51
2022/04/12 06:20:23;;;;;;;67.93;35.08;;;4.50;99.90;;;;;;5071277;28;20120;-52
2022/04/12 06:22:49;;;;;;;53.30;27.63;;;4.50;99.90;;;;;;5070639;28;20032;-52
2022/04/12 06:25:19;;;;;;;59.10;29.38;;;4.70;99.90;;;;;;5052315;28;20029;-51
2022/04/12 06:27:50;;;;;;;48.05;22.52;;;4.90;99.90;;;;;;5070348;28;20133;-52
2022/04/12 06:30:21;;;;;;;42.15;19.13;;;4.90;99.90;;;;;;5070795;28;20024;-53
2022/04/12 06:32:47;;;;;;;48.08;21.15;;;5.10;99.90;;;;;;5070728;28;20124;-52
2022/04/12 06:35:13;;;;;;;55.33;23.42;;;5.10;99.90;;;;;;5070880;28;20035;-53
2022/04/12 06:37:41;;;;;;;43.83;21.42;;;5.30;99.90;;;;;;5070851;28;20115;-52
2022/04/12 06:40:07;;;;;;;;;;;5.40;99.90;;;;;;5071109;28;20103;-52
2022/04/12 06:42:34;;;;;;;34.58;19.30;;;5.50;99.90;;;;;;5070593;28;19940;-53
2022/04/12 06:45:00;;;;;;;35.85;18.23;;;5.50;99.90;;;;;;5070747;28;20060;-52
2022/04/12 06:47:26;;;;;;;34.85;19.85;;;5.60;99.90;;;;;;5069244;28;20511;-51
2022/04/12 06:49:52;;;;;;;45.00;19.77;;;5.70;99.90;;;;;;5070182;28;20064;-52
2022/04/12 06:52:21;;;;;;;38.00;19.45;;;5.80;99.90;;;;;;5052612;28;20125;-52
2022/04/12 06:54:47;;;;;;;44.20;21.85;;;5.80;99.90;;;;;;5070259;28;20052;-53
2022/04/12 06:57:13;;;;;;;39.10;19.45;;;6.00;99.90;;;;;;5070508;28;20067;-52
2022/04/12 06:59:40;;;;;;;37.70;20.77;;;6.00;99.90;;;;;;5070568;28;20035;-53
2022/04/12 07:02:06;;;;;;;36.35;20.17;;;6.20;99.90;;;;;;5070116;28;20047;-51
2022/04/12 07:04:32;;;;;;;35.20;17.80;;;6.30;99.90;;;;;;5070282;28;20475;-52
2022/04/12 07:06:59;;;;;;;34.08;18.20;;;6.40;99.90;;;;;;5070098;28;20537;-54
2022/04/12 07:09:27;;;;;;;36.33;18.17;;;6.40;99.90;;;;;;5035301;28;20052;-52
2022/04/12 07:12:01;;;;;;;35.03;16.98;;;6.40;99.90;;;;;;5037847;28;20470;-52
2022/04/12 07:14:28;;;;;;;36.50;17.63;;;6.50;99.90;;;;;;5069761;28;20070;-52
2022/04/12 07:16:55;;;;;;;34.63;16.92;;;6.60;99.90;;;;;;5069809;28;20024;-51
2022/04/12 07:19:20;;;;;;;32.65;18.95;;;6.70;99.90;;;;;;5069813;28;20028;-53
2022/04/12 07:21:47;;;;;;;21.73;10.35;;;6.70;99.90;;;;;;5069796;28;20058;-53
2022/04/12 07:24:13;;;;;;;23.60;10.77;;;6.90;99.90;;;;;;5069750;28;20064;-52
2022/04/12 07:26:39;;;;;;;22.38;12.07;;;7.10;99.90;;;;;;5069674;28;20048;-52
2022/04/12 07:29:04;;;;;;;24.17;11.75;;;7.30;99.90;;;;;;5069358;28;20038;-51
2022/04/12 07:31:30;;;;;;;24.35;12.77;;;7.40;99.90;;;;;;5069579;28;20028;-52
2022/04/12 07:33:56;;;;;;;32.28;13.60;;;7.40;99.90;;;;;;5069769;28;20437;-52
2022/04/12 07:36:22;;;;;;;21.60;12.23;;;7.50;99.90;;;;;;5069553;28;20571;-52
2022/04/12 07:38:51;;;;;;;18.55;10.48;;;7.60;99.90;;;;;;5068932;28;20032;-52
2022/04/12 07:41:18;;;;;;;22.98;11.30;;;7.70;99.90;;;;;;5069481;28;20443;-55
2022/04/12 07:43:45;;;;;;;15.40;7.07;;;7.80;99.90;;;;;;5069457;28;20113;-52
2022/04/12 07:46:11;;;;;;;;;;;7.90;99.90;;;;;;5051704;28;20405;-51
2022/04/12 07:48:37;;;;;;;10.70;6.10;;;8.00;97.80;;;;;;5069000;28;20011;-52
2022/04/12 07:51:02;;;;;;;12.10;6.53;;;8.10;96.10;;;;;;5068909;28;20048;-52
2022/04/12 07:53:28;;;;;;;14.20;6.38;;;8.10;98.90;;;;;;5068863;28;20037;-52
2022/04/12 07:55:54;;;;;;;14.35;6.55;;;8.30;98.70;;;;;;5069249;28;20016;-53
2022/04/12 07:58:19;;;;;;;17.10;6.90;;;8.50;99.90;;;;;;5069358;28;20130;-52
2022/04/12 08:00:45;;;;;;;16.17;7.93;;;8.60;97.30;;;;;;5069094;28;20044;-53
2022/04/12 08:03:11;;;;;;;19.60;8.20;;;8.60;95.80;;;;;;5069283;28;20746;-53
2022/04/12 08:05:36;;;;;;;21.23;8.77;;;8.80;99.60;;;;;;5051024;28;20369;-52
2022/04/12 08:08:04;;;;;;;17.48;8.75;;;8.90;95.90;;;;;;5069105;28;20032;-53
2022/04/12 08:10:30;;;;;;;25.63;10.30;;;9.00;97.70;;;;;;5068743;28;20032;-53
2022/04/12 08:12:57;;;;;;;20.17;9.73;;;9.00;99.70;;;;;;5068887;28;20093;-53
2022/04/12 08:15:24;;;;;;;23.42;10.07;;;9.40;99.90;;;;;;5069078;28;20132;-53
2022/04/12 08:17:51;;;;;;;18.77;9.43;;;9.50;95.20;;;;;;5069367;28;20474;-51
2022/04/12 08:20:16;;;;;;;16.60;9.13;;;9.50;92.50;;;;;;5068954;28;20116;-52
2022/04/12 08:22:43;;;;;;;19.23;9.30;;;9.30;90.90;;;;;;5068915;28;20116;-52
2022/04/12 08:25:10;;;;;;;18.90;9.48;;;9.40;92.90;;;;;;5067776;28;20032;-52
2022/04/12 08:27:36;;;;;;;22.92;9.40;;;9.50;96.50;;;;;;5068591;28;20039;-52
2022/04/12 08:30:04;;;;;;;22.55;10.35;;;9.80;95.70;;;;;;5069106;28;20119;-54
2022/04/12 08:32:29;;;;;;;20.63;10.20;;;9.90;92.50;;;;;;5068578;28;20077;-52
2022/04/12 08:34:55;;;;;;;22.83;10.15;;;9.80;91.20;;;;;;5068910;28;20040;-53
2022/04/12 08:37:21;;;;;;;21.27;10.63;;;9.80;90.30;;;;;;5068618;28;20583;-52
2022/04/12 08:39:47;;;;;;;22.90;10.85;;;9.80;91.00;;;;;;5068635;28;20028;-53
2022/04/12 08:42:14;;;;;;;29.45;12.00;;;10.20;95.00;;;;;;5067482;28;20036;-52
2022/04/12 08:44:45;;;;;;;22.60;10.80;;;10.40;95.30;;;;;;5068858;28;20020;-51
2022/04/12 08:47:13;;;;;;;18.35;10.27;;;10.60;93.20;;;;;;5068763;28;20025;-51
2022/04/12 08:49:40;;;;;;;23.13;10.85;;;10.80;94.00;;;;;;5070518;28;20099;-52
2022/04/12 08:52:11;;;;;;;20.60;10.88;;;11.10;92.60;;;;;;5072407;28;20140;-51
2022/04/12 08:54:38;;;;;;;24.88;13.15;;;11.10;87.10;;;;;;5087994;28;20075;-54
2022/04/12 08:57:04;;;;;;;21.25;11.43;;;11.20;90.10;;;;;;5089772;28;20344;-52
2022/04/12 08:59:30;;;;;;;23.08;11.80;;;11.40;93.50;;;;;;5081897;28;20028;-51
2022/04/12 09:01:57;;;;;;;21.67;10.27;;;11.30;82.60;;;;;;5086629;28;20043;-53
2022/04/12 09:04:26;;;;;;;21.77;10.65;;;11.00;80.50;;;;;;5092757;28;20100;-53
2022/04/12 09:06:54;;;;;;;22.67;11.30;;;10.80;81.20;;;;;;5092470;28;20032;-52
2022/04/12 09:09:26;;;;;;;21.10;10.13;;;11.20;79.50;;;;;;5079713;28;20101;-52
2022/04/12 09:12:02;;;;;;;24.92;10.88;;;11.60;79.30;;;;;;5072524;28;20025;-53
2022/04/12 09:14:43;;;;;;;23.90;11.32;;;11.90;80.70;;;;;;5072426;28;20445;-54
2022/04/12 09:17:12;;;;;;;26.27;11.77;;;12.90;74.00;;;;;;5077150;28;20032;-50
2022/04/12 09:19:44;;;;;;;20.83;10.40;;;13.30;72.50;;;;;;5085705;28;20020;-51
2022/04/12 09:22:21;;;;;;;18.58;10.45;;;13.70;73.60;;;;;;5089499;28;20020;-50
2022/04/12 09:24:48;;;;;;;16.25;8.05;;;13.30;66.70;;;;;;5082746;28;20392;-53
2022/04/12 09:27:16;;;;;;;19.73;8.52;;;13.00;64.90;;;;;;5050383;28;20041;-52
2022/04/12 09:29:45;;;;;;;15.32;7.95;;;13.20;67.30;;;;;;5049782;28;20124;-52
2022/04/12 09:32:14;;;;;;;11.00;6.18;;;13.70;61.70;;;;;;5051780;28;20025;-52
2022/04/12 09:34:41;;;;;;;13.73;6.00;;;13.50;59.90;;;;;;5051666;28;20472;-52
2022/04/12 09:37:20;;;;;;;;;;;13.20;59.90;;;;;;5050152;28;20094;-51
2022/04/12 09:40:02;;;;;;;11.35;4.57;;;13.80;58.00;;;;;;5049776;28;19909;-52
2022/04/12 09:42:47;;;;;;;8.45;4.07;;;13.20;56.50;;;;;;5049722;28;20037;-51
2022/04/12 09:45:14;;;;;;;12.27;4.85;;;13.80;55.80;;;;;;5032440;28;20017;-53
2022/04/12 09:47:41;;;;;;;10.82;6.53;;;14.60;58.80;;;;;;5052079;28;20029;-52
2022/04/12 09:50:09;;;;;;;10.43;4.60;;;13.80;56.30;;;;;;5050686;28;20043;-53
2022/04/12 09:52:35;;;;;;;12.95;5.88;;;13.80;54.70;;;;;;5050274;28;20524;-52
2022/04/12 09:55:00;;;;;;;20.98;7.78;;;14.30;54.70;;;;;;5050961;28;20037;-53
2022/04/12 09:57:26;;;;;;;13.68;6.70;;;14.70;54.00;;;;;;5051484;28;20083;-52
2022/04/12 09:59:57;;;;;;;14.43;7.60;;;15.00;56.50;;;;;;5051220;28;20025;-52
2022/04/12 10:02:25;;;;;;;15.50;7.60;;;15.50;56.50;;;;;;5033484;28;20056;-54
2022/04/12 10:04:52;;;;;;;14.48;7.32;;;16.00;58.20;;;;;;5051718;28;20044;-52
2022/04/12 10:07:19;;;;;;;;;;;16.50;54.10;;;;;;5051504;28;20032;-53
2022/04/12 10:09:47;;;;;;;15.60;8.07;;;16.30;56.70;;;;;;5065946;28;19913;-52
2022/04/12 10:12:13;;;;;;;12.98;7.18;;;16.40;55.40;;;;;;5071425;28;20024;-52
2022/04/12 10:14:39;;;;;;;15.82;6.53;;;16.60;53.30;;;;;;5071082;28;20430;-50
2022/04/12 10:17:04;;;;;;;13.88;7.00;;;16.00;53.20;;;;;;5071118;28;20471;-49
2022/04/12 10:19:32;;;;;;;11.65;5.78;;;16.20;54.60;;;;;;5071192;28;20494;-50
2022/04/12 10:21:57;;;;;;;12.82;6.65;;;16.40;54.60;;;;;;5071097;28;20025;-51
2022/04/12 10:24:27;;;;;;;14.85;5.95;;;16.40;54.10;;;;;;5069318;28;20039;-52
2022/04/12 10:26:55;;;;;;;10.75;6.30;;;16.90;53.40;;;;;;5070359;28;20094;-50
2022/04/12 10:29:21;;;;;;;13.77;6.72;;;16.60;53.00;;;;;;5070530;28;20044;-51
2022/04/12 10:32:00;;;;;;;11.85;6.38;;;16.50;51.10;;;;;;5070246;28;20085;-51
2022/04/12 10:34:26;;;;;;;15.63;7.65;;;16.60;51.00;;;;;;5070258;28;20025;-51
2022/04/12 10:36:55;;;;;;;15.93;7.35;;;16.00;51.20;;;;;;5070456;28;20033;-52
2022/04/12 10:39:36;;;;;;;16.15;6.22;;;16.00;52.10;;;;;;5070567;28;20464;-51
2022/04/12 10:42:06;;;;;;;16.17;7.82;;;16.50;53.60;;;;;;5052807;28;20116;-51
2022/04/12 10:44:40;;;;;;;13.40;7.30;;;17.00;53.80;;;;;;5070720;28;20438;-53
2022/04/12 10:47:19;;;;;;;13.93;6.38;;;17.10;54.10;;;;;;5070567;28;20029;-51
2022/04/12 10:49:56;;;;;;;12.07;5.80;;;17.60;49.80;;;;;;5070450;28;20029;-50
2022/04/12 10:52:52;;;;;;;10.40;6.70;;;17.50;52.00;;;;;;5071560;28;20045;-52
2022/04/12 10:55:25;;;;;;;12.95;6.75;;;17.50;52.00;;;;;;5081458;28;20054;-50
2022/04/12 10:57:53;;;;;;;12.43;6.53;;;17.90;48.90;;;;;;5080819;28;20017;-53
2022/04/12 11:00:21;;;;;;;11.15;5.45;;;17.70;46.90;;;;;;5076215;28;20017;-52
2022/04/12 11:02:59;;;;;;;15.45;5.20;;;17.90;48.50;;;;;;5079816;28;20035;-51
2022/04/12 11:05:37;;;;;;;10.95;5.88;;;17.70;43.10;;;;;;5076792;28;20021;-51
2022/04/12 11:08:15;;;;;;;11.52;5.65;;;18.20;46.10;;;;;;5076238;28;20040;-50
2022/04/12 11:10:42;;;;;;;10.25;5.03;;;18.50;44.50;;;;;;5075674;28;20036;-51
2022/04/12 11:13:10;;;;;;;10.02;4.90;;;18.80;45.30;;;;;;5059930;28;20085;-52
2022/04/12 11:15:37;;;;;;;11.38;5.93;;;19.00;43.60;;;;;;5077821;28;20035;-51
2022/04/12 11:18:16;;;;;;;10.95;6.55;;;18.50;42.20;;;;;;5079761;28;20024;-52
2022/04/12 11:20:45;;;;;;;11.13;5.72;;;18.10;43.00;;;;;;5075582;28;20028;-52
2022/04/12 11:23:13;;;;;;;11.15;6.72;;;17.50;44.10;;;;;;5078331;28;20020;-51
2022/04/12 11:25:45;;;;;;;12.10;6.22;;;17.80;47.50;;;;;;5079965;28;20133;-51
2022/04/12 11:28:15;;;;;;;19.00;6.90;;;18.10;47.20;;;;;;5079539;28;20119;-51
2022/04/12 11:30:51;;;;;;;13.35;6.88;;;18.00;46.90;;;;;;5075341;28;20024;-51
2022/04/12 11:33:16;;;;;;;14.15;7.13;;;17.80;45.20;;;;;;5077746;28;20032;-53
2022/04/12 11:35:42;;;;;;;13.82;6.40;;;17.60;45.80;;;;;;5079353;28;20049;-52
2022/04/12 11:38:08;;;;;;;13.68;6.93;;;17.30;44.30;;;;;;5077984;28;20538;-50
2022/04/12 11:40:34;;;;;;;11.70;6.30;;;17.40;45.30;;;;;;5052201;28;20020;-52
2022/04/12 11:42:59;;;;;;;15.32;6.30;;;17.30;44.90;;;;;;5068551;28;20025;-51
2022/04/12 11:45:33;;;;;;;13.20;6.50;;;17.30;43.00;;;;;;5069036;28;20024;-51
2022/04/12 11:47:58;;;;;;;13.38;6.50;;;17.40;46.00;;;;;;5071709;28;20028;-51
2022/04/12 11:50:24;;;;;;;13.75;6.60;;;17.50;48.70;;;;;;5059347;28;20114;-52
2022/04/12 11:52:50;;;;;;;14.30;7.15;;;17.80;46.40;;;;;;5058899;28;20027;-51
2022/04/12 11:55:16;;;;;;;14.05;6.97;;;17.70;46.40;;;;;;5040005;28;20028;-52
2022/04/12 11:57:41;;;;;;;17.67;7.43;;;17.50;45.30;;;;;;5057164;28;20669;-53
2022/04/12 12:00:08;;;;;;;13.55;6.53;;;17.70;45.40;;;;;;5059064;28;20020;-52
2022/04/12 12:02:39;;;;;;;13.02;7.88;;;17.90;45.70;;;;;;5057558;28;20484;-52
2022/04/12 12:05:13;;;;;;;14.10;6.50;;;18.00;43.50;;;;;;5056616;28;20028;-52
2022/04/12 12:07:39;;;;;;;14.63;7.55;;;17.40;44.30;;;;;;5057136;28;20029;-50
2022/04/12 12:10:12;;;;;;;14.60;7.38;;;16.70;45.00;;;;;;5058493;28;20024;-52
2022/04/12 12:12:45;;;;;;;13.60;7.13;;;16.60;44.70;;;;;;5058829;28;20036;-52
2022/04/12 12:15:26;;;;;;;12.82;6.97;;;17.00;46.30;;;;;;5057040;28;20731;-51
2022/04/12 12:17:56;;;;;;;12.73;6.68;;;17.30;47.00;;;;;;5057212;28;20100;-52
2022/04/12 12:20:24;;;;;;;12.88;6.55;;;17.40;47.60;;;;;;5056657;28;20052;-52
2022/04/12 12:23:00;;;;;;;11.25;5.43;;;17.90;44.20;;;;;;5062585;28;20681;-53
2022/04/12 12:25:54;;;;;;;11.63;6.30;;;17.90;41.90;;;;;;5056074;28;20037;-51
2022/04/12 12:28:25;;;;;;;11.38;4.97;;;18.10;43.30;;;;;;5057838;28;20052;-52
2022/04/12 12:31:05;;;;;;;10.55;5.82;;;17.90;40.00;;;;;;5056290;28;20526;-51
2022/04/12 12:33:46;;;;;;;9.95;5.57;;;17.40;38.60;;;;;;5062714;28;20578;-51
2022/04/12 12:36:19;;;;;;;12.88;5.40;;;17.40;41.90;;;;;;5059577;28;20085;-50
2022/04/12 12:38:46;;;;;;;11.82;5.65;;;17.20;41.40;;;;;;5068368;28;20032;-52
2022/04/12 12:41:22;;;;;;;14.20;5.78;;;17.20;42.40;;;;;;5068829;28;20096;-52